sensor_id;sensor_type;location;lat;lon;timestamp;temperature;humidity
7117;DHT22;3600;48.568;7.870;2023-04-03T00:00:47;5.90;99.90
7117;DHT22;3600;48.568;7.870;2023-04-03T00:03:17;5.80;99.90
7117;DHT22;3600;48.568;7.870;2023-04-03T00:05:44;5.90;99.90
7117;DHT22;3600;48.568;7.870;2023-04-03T00:08:11;6.00;99.90
7117;DHT22;3600;48.568;7.870;2023-04-03T00:10:38;5.70;99.90
7117;DHT22;3600;48.568;7.870;2023-04-03T00:13:06;5.60;99.90
7117;DHT22;3600;48.568;7.870;2023-04-03T00:15:34;5.80;99.90
7117;DHT22;3600;48.568;7.870;2023-04-03T00:18:01;5.90;99.90
7117;DHT22;3600;48.568;7.870;2023-04-03T00:20:28;5.70;99.90
7117;DHT22;3600;48.568;7.870;2023-04-03T00:22:55;5.50;99.90
7117;DHT22;3600;48.568;7.870;2023-04-03T00:25:22;5.50;99.90
7117;DHT22;3600;48.568;7.870;2023-04-03T00:27:48;5.80;99.90
7117;DHT22;3600;48.568;7.870;2023-04-03T00:30:17;5.80;99.90
7117;DHT22;3600;48.568;7.870;2023-04-03T00:32:44;5.80;99.90
7117;DHT22;3600;48.568;7.870;2023-04-03T00:35:11;6.00;99.90
7117;DHT22;3600;48.568;7.870;2023-04-03T00:37:37;5.80;99.90
7117;DHT22;3600;48.568;7.870;2023-04-03T00:40:05;5.60;99.90
7117;DHT22;3600;48.568;7.870;2023-04-03T00:42:32;5.90;99.90
7117;DHT22;3600;48.568;7.870;2023-04-03T00:47:27;5.70;99.90
7117;DHT22;3600;48.568;7.870;2023-04-03T00:49:54;5.70;99.90
7117;DHT22;3600;48.568;7.870;2023-04-03T00:52:25;5.70;99.90
7117;DHT22;3600;48.568;7.870;2023-04-03T00:54:57;5.90;99.90
7117;DHT22;3600;48.568;7.870;2023-04-03T00:57:26;5.70;99.90
7117;DHT22;3600;48.568;7.870;2023-04-03T00:59:59;5.70;99.90
7117;DHT22;3600;48.568;7.870;2023-04-03T01:02:27;5.80;99.90
7117;DHT22;3600;48.568;7.870;2023-04-03T01:04:54;5.80;99.90
7117;DHT22;3600;48.568;7.870;2023-04-03T01:07:24;5.80;99.90
7117;DHT22;3600;48.568;7.870;2023-04-03T01:09:57;5.80;99.90
7117;DHT22;3600;48.568;7.870;2023-04-03T01:12:28;5.80;99.90
7117;DHT22;3600;48.568;7.870;2023-04-03T01:15:00;5.80;99.90
7117;DHT22;3600;48.568;7.870;2023-04-03T01:25:45;5.60;99.90
7117;DHT22;3600;48.568;7.870;2023-04-03T01:28:27;5.80;99.90
7117;DHT22;3600;48.568;7.870;2023-04-03T01:31:02;6.00;99.90
7117;DHT22;3600;48.568;7.870;2023-04-03T01:33:31;6.00;99.90
7117;DHT22;3600;48.568;7.870;2023-04-03T01:35:58;5.70;99.90
7117;DHT22;3600;48.568;7.870;2023-04-03T01:38:25;5.70;99.90
7117;DHT22;3600;48.568;7.870;2023-04-03T01:40:52;5.70;99.90
7117;DHT22;3600;48.568;7.870;2023-04-03T01:43:18;5.70;99.90
7117;DHT22;3600;48.568;7.870;2023-04-03T01:45:45;5.80;99.90
7117;DHT22;3600;48.568;7.870;2023-04-03T01:48:13;5.80;99.90
7117;DHT22;3600;48.568;7.870;2023-04-03T01:50:39;5.60;99.90
7117;DHT22;3600;48.568;7.870;2023-04-03T01:53:07;5.70;99.90
7117;DHT22;3600;48.568;7.870;2023-04-03T01:55:33;5.60;99.90
7117;DHT22;3600;48.568;7.870;2023-04-03T01:58:00;5.40;99.90
7117;DHT22;3600;48.568;7.870;2023-04-03T02:00:27;5.40;99.90
7117;DHT22;3600;48.568;7.870;2023-04-03T02:02:54;5.30;99.90
7117;DHT22;3600;48.568;7.870;2023-04-03T02:05:21;5.40;99.90
7117;DHT22;3600;48.568;7.870;2023-04-03T02:07:47;5.30;99.90
7117;DHT22;3600;48.568;7.870;2023-04-03T02:10:14;5.40;99.90
7117;DHT22;3600;48.568;7.870;2023-04-03T02:12:41;5.50;99.90
7117;DHT22;3600;48.568;7.870;2023-04-03T02:15:08;5.40;99.90
7117;DHT22;3600;48.568;7.870;2023-04-03T02:17:35;5.40;99.90
7117;DHT22;3600;48.568;7.870;2023-04-03T02:20:03;5.40;99.90
7117;DHT22;3600;48.568;7.870;2023-04-03T02:22:30;5.20;99.90
7117;DHT22;3600;48.568;7.870;2023-04-03T02:24:57;5.20;99.90
7117;DHT22;3600;48.568;7.870;2023-04-03T02:27:24;5.30;99.90
7117;DHT22;3600;48.568;7.870;2023-04-03T02:29:50;5.30;99.90
7117;DHT22;3600;48.568;7.870;2023-04-03T02:32:17;5.40;99.90
7117;DHT22;3600;48.568;7.870;2023-04-03T02:34:44;5.30;99.90
7117;DHT22;3600;48.568;7.870;2023-04-03T02:37:10;5.40;99.90
7117;DHT22;3600;48.568;7.870;2023-04-03T02:39:37;5.30;99.90
7117;DHT22;3600;48.568;7.870;2023-04-03T02:42:04;5.40;99.90
7117;DHT22;3600;48.568;7.870;2023-04-03T02:44:31;5.50;99.90
7117;DHT22;3600;48.568;7.870;2023-04-03T02:46:57;5.40;99.90
7117;DHT22;3600;48.568;7.870;2023-04-03T02:49:24;5.40;99.90
7117;DHT22;3600;48.568;7.870;2023-04-03T02:51:51;5.40;99.90
7117;DHT22;3600;48.568;7.870;2023-04-03T02:54:18;5.60;99.90
7117;DHT22;3600;48.568;7.870;2023-04-03T02:56:44;5.60;99.90
7117;DHT22;3600;48.568;7.870;2023-04-03T02:59:11;5.50;99.90
7117;DHT22;3600;48.568;7.870;2023-04-03T03:01:38;5.40;99.90
7117;DHT22;3600;48.568;7.870;2023-04-03T03:04:05;5.40;99.90
7117;DHT22;3600;48.568;7.870;2023-04-03T03:06:31;5.40;99.90
7117;DHT22;3600;48.568;7.870;2023-04-03T03:08:58;5.30;99.90
7117;DHT22;3600;48.568;7.870;2023-04-03T03:11:25;5.10;99.90
7117;DHT22;3600;48.568;7.870;2023-04-03T03:13:52;5.30;99.90
7117;DHT22;3600;48.568;7.870;2023-04-03T03:16:19;5.30;99.90
7117;DHT22;3600;48.568;7.870;2023-04-03T03:18:45;5.30;99.90
7117;DHT22;3600;48.568;7.870;2023-04-03T03:21:12;5.30;99.90
7117;DHT22;3600;48.568;7.870;2023-04-03T03:23:40;5.40;99.90
7117;DHT22;3600;48.568;7.870;2023-04-03T03:26:09;5.20;99.90
7117;DHT22;3600;48.568;7.870;2023-04-03T03:28:37;5.40;99.90
7117;DHT22;3600;48.568;7.870;2023-04-03T03:31:04;5.10;99.90
7117;DHT22;3600;48.568;7.870;2023-04-03T03:33:31;5.20;99.90
7117;DHT22;3600;48.568;7.870;2023-04-03T03:35:59;5.30;99.90
7117;DHT22;3600;48.568;7.870;2023-04-03T03:38:26;5.10;99.90
7117;DHT22;3600;48.568;7.870;2023-04-03T03:40:53;5.10;99.90
7117;DHT22;3600;48.568;7.870;2023-04-03T03:43:19;5.00;99.90
7117;DHT22;3600;48.568;7.870;2023-04-03T03:45:50;5.30;99.90
7117;DHT22;3600;48.568;7.870;2023-04-03T03:48:19;5.30;99.90
7117;DHT22;3600;48.568;7.870;2023-04-03T03:50:46;5.20;99.90
7117;DHT22;3600;48.568;7.870;2023-04-03T03:53:13;5.20;99.90
7117;DHT22;3600;48.568;7.870;2023-04-03T03:55:40;5.00;99.90
7117;DHT22;3600;48.568;7.870;2023-04-03T03:58:07;5.10;99.90
7117;DHT22;3600;48.568;7.870;2023-04-03T04:00:34;5.10;99.90
7117;DHT22;3600;48.568;7.870;2023-04-03T04:03:01;4.90;99.90
7117;DHT22;3600;48.568;7.870;2023-04-03T04:05:28;4.80;99.90
7117;DHT22;3600;48.568;7.870;2023-04-03T04:07:54;4.70;99.90
7117;DHT22;3600;48.568;7.870;2023-04-03T04:10:21;4.80;99.90
7117;DHT22;3600;48.568;7.870;2023-04-03T04:12:48;5.00;99.90
7117;DHT22;3600;48.568;7.870;2023-04-03T04:15:15;5.00;99.90
7117;DHT22;3600;48.568;7.870;2023-04-03T04:17:42;5.00;99.90
7117;DHT22;3600;48.568;7.870;2023-04-03T04:20:09;5.10;99.90
7117;DHT22;3600;48.568;7.870;2023-04-03T04:22:36;4.80;99.90
7117;DHT22;3600;48.568;7.870;2023-04-03T04:25:04;4.60;99.90
7117;DHT22;3600;48.568;7.870;2023-04-03T04:27:31;4.90;99.90
7117;DHT22;3600;48.568;7.870;2023-04-03T04:29:58;5.00;99.90
7117;DHT22;3600;48.568;7.870;2023-04-03T04:32:25;5.00;99.90
7117;DHT22;3600;48.568;7.870;2023-04-03T04:34:51;5.10;99.90
7117;DHT22;3600;48.568;7.870;2023-04-03T04:37:18;5.10;99.90
7117;DHT22;3600;48.568;7.870;2023-04-03T04:39:45;5.00;99.90
7117;DHT22;3600;48.568;7.870;2023-04-03T04:42:12;4.80;99.90
7117;DHT22;3600;48.568;7.870;2023-04-03T04:44:42;4.80;99.90
7117;DHT22;3600;48.568;7.870;2023-04-03T04:47:08;4.70;99.90
7117;DHT22;3600;48.568;7.870;2023-04-03T04:49:35;4.70;99.90
7117;DHT22;3600;48.568;7.870;2023-04-03T04:52:02;4.50;99.90
7117;DHT22;3600;48.568;7.870;2023-04-03T04:54:29;4.70;99.90
7117;DHT22;3600;48.568;7.870;2023-04-03T04:56:56;4.70;99.90
7117;DHT22;3600;48.568;7.870;2023-04-03T04:59:22;4.80;99.90
7117;DHT22;3600;48.568;7.870;2023-04-03T05:01:49;4.70;99.90
7117;DHT22;3600;48.568;7.870;2023-04-03T05:04:16;4.70;99.90
7117;DHT22;3600;48.568;7.870;2023-04-03T05:06:43;4.60;99.90
7117;DHT22;3600;48.568;7.870;2023-04-03T05:09:10;4.60;99.90
7117;DHT22;3600;48.568;7.870;2023-04-03T05:11:37;4.60;99.90
7117;DHT22;3600;48.568;7.870;2023-04-03T05:14:03;4.50;99.90
7117;DHT22;3600;48.568;7.870;2023-04-03T05:16:33;4.50;99.90
7117;DHT22;3600;48.568;7.870;2023-04-03T05:19:00;4.50;99.90
7117;DHT22;3600;48.568;7.870;2023-04-03T05:21:27;4.50;99.90
7117;DHT22;3600;48.568;7.870;2023-04-03T05:23:59;4.50;99.90
7117;DHT22;3600;48.568;7.870;2023-04-03T05:26:30;4.50;99.90
7117;DHT22;3600;48.568;7.870;2023-04-03T05:28:58;4.60;99.90
7117;DHT22;3600;48.568;7.870;2023-04-03T05:31:25;4.50;99.90
7117;DHT22;3600;48.568;7.870;2023-04-03T05:33:51;4.40;99.90
7117;DHT22;3600;48.568;7.870;2023-04-03T05:36:18;4.60;99.90
7117;DHT22;3600;48.568;7.870;2023-04-03T05:38:46;4.70;99.90
7117;DHT22;3600;48.568;7.870;2023-04-03T05:41:14;4.70;99.90
7117;DHT22;3600;48.568;7.870;2023-04-03T05:43:41;4.60;99.90
7117;DHT22;3600;48.568;7.870;2023-04-03T05:46:12;4.40;99.90
7117;DHT22;3600;48.568;7.870;2023-04-03T05:48:39;4.40;99.90
7117;DHT22;3600;48.568;7.870;2023-04-03T05:51:07;4.50;99.90
7117;DHT22;3600;48.568;7.870;2023-04-03T05:53:36;4.40;99.90
7117;DHT22;3600;48.568;7.870;2023-04-03T05:56:05;4.50;99.90
7117;DHT22;3600;48.568;7.870;2023-04-03T05:58:32;4.60;99.90
7117;DHT22;3600;48.568;7.870;2023-04-03T06:00:59;4.70;99.90
7117;DHT22;3600;48.568;7.870;2023-04-03T06:03:26;4.70;99.90
7117;DHT22;3600;48.568;7.870;2023-04-03T06:05:53;4.60;99.90
7117;DHT22;3600;48.568;7.870;2023-04-03T06:08:19;4.70;99.90
7117;DHT22;3600;48.568;7.870;2023-04-03T06:10:46;4.80;99.90
7117;DHT22;3600;48.568;7.870;2023-04-03T06:13:14;4.80;99.90
7117;DHT22;3600;48.568;7.870;2023-04-03T06:15:41;4.60;99.90
7117;DHT22;3600;48.568;7.870;2023-04-03T06:18:08;4.70;99.90
7117;DHT22;3600;48.568;7.870;2023-04-03T06:20:35;4.90;99.90
7117;DHT22;3600;48.568;7.870;2023-04-03T06:23:02;5.10;99.90
7117;DHT22;3600;48.568;7.870;2023-04-03T06:25:29;5.10;99.90
7117;DHT22;3600;48.568;7.870;2023-04-03T06:27:56;5.20;99.90
7117;DHT22;3600;48.568;7.870;2023-04-03T06:30:22;5.10;99.90
7117;DHT22;3600;48.568;7.870;2023-04-03T06:32:49;5.00;99.90
7117;DHT22;3600;48.568;7.870;2023-04-03T06:35:16;5.30;99.90
7117;DHT22;3600;48.568;7.870;2023-04-03T06:37:43;5.20;99.90
7117;DHT22;3600;48.568;7.870;2023-04-03T06:40:19;5.10;99.90
7117;DHT22;3600;48.568;7.870;2023-04-03T06:42:47;5.20;99.90
7117;DHT22;3600;48.568;7.870;2023-04-03T06:45:13;5.20;99.90
7117;DHT22;3600;48.568;7.870;2023-04-03T06:47:41;5.40;99.90
7117;DHT22;3600;48.568;7.870;2023-04-03T06:50:09;5.30;99.90
7117;DHT22;3600;48.568;7.870;2023-04-03T06:52:37;5.20;99.90
7117;DHT22;3600;48.568;7.870;2023-04-03T06:55:07;5.30;99.90
7117;DHT22;3600;48.568;7.870;2023-04-03T06:57:35;5.40;99.90
7117;DHT22;3600;48.568;7.870;2023-04-03T07:00:03;5.40;99.90
7117;DHT22;3600;48.568;7.870;2023-04-03T07:02:31;5.50;99.90
7117;DHT22;3600;48.568;7.870;2023-04-03T07:04:58;5.60;99.90
7117;DHT22;3600;48.568;7.870;2023-04-03T07:07:24;5.40;99.90
7117;DHT22;3600;48.568;7.870;2023-04-03T07:09:51;5.40;99.90
7117;DHT22;3600;48.568;7.870;2023-04-03T07:12:18;5.60;99.90
7117;DHT22;3600;48.568;7.870;2023-04-03T07:14:45;5.80;99.90
7117;DHT22;3600;48.568;7.870;2023-04-03T07:17:12;5.50;99.90
7117;DHT22;3600;48.568;7.870;2023-04-03T07:19:38;5.50;99.90
7117;DHT22;3600;48.568;7.870;2023-04-03T07:22:06;5.50;99.90
7117;DHT22;3600;48.568;7.870;2023-04-03T07:24:33;5.50;99.90
7117;DHT22;3600;48.568;7.870;2023-04-03T07:27:00;5.60;99.90
7117;DHT22;3600;48.568;7.870;2023-04-03T07:29:28;5.70;99.90
7117;DHT22;3600;48.568;7.870;2023-04-03T07:31:54;5.70;99.90
7117;DHT22;3600;48.568;7.870;2023-04-03T07:34:22;5.70;99.60
7117;DHT22;3600;48.568;7.870;2023-04-03T07:36:49;5.90;99.90
7117;DHT22;3600;48.568;7.870;2023-04-03T07:39:16;5.80;99.90
7117;DHT22;3600;48.568;7.870;2023-04-03T07:41:43;5.80;99.90
7117;DHT22;3600;48.568;7.870;2023-04-03T07:44:10;5.90;99.60
7117;DHT22;3600;48.568;7.870;2023-04-03T07:46:37;5.90;99.90
7117;DHT22;3600;48.568;7.870;2023-04-03T07:49:04;6.00;99.70
7117;DHT22;3600;48.568;7.870;2023-04-03T07:51:31;6.10;99.80
7117;DHT22;3600;48.568;7.870;2023-04-03T07:53:58;6.10;99.00
7117;DHT22;3600;48.568;7.870;2023-04-03T07:56:25;6.00;99.40
7117;DHT22;3600;48.568;7.870;2023-04-03T07:58:51;6.10;99.10
7117;DHT22;3600;48.568;7.870;2023-04-03T08:01:18;6.10;99.50
7117;DHT22;3600;48.568;7.870;2023-04-03T08:03:45;6.10;99.10
7117;DHT22;3600;48.568;7.870;2023-04-03T08:06:12;6.10;99.90
7117;DHT22;3600;48.568;7.870;2023-04-03T08:08:44;6.00;98.00
7117;DHT22;3600;48.568;7.870;2023-04-03T08:11:11;6.10;97.70
7117;DHT22;3600;48.568;7.870;2023-04-03T08:13:38;6.10;97.50
7117;DHT22;3600;48.568;7.870;2023-04-03T08:16:13;6.00;97.20
7117;DHT22;3600;48.568;7.870;2023-04-03T08:18:43;6.00;97.70
7117;DHT22;3600;48.568;7.870;2023-04-03T08:21:11;6.30;97.90
7117;DHT22;3600;48.568;7.870;2023-04-03T08:23:39;6.30;97.80
7117;DHT22;3600;48.568;7.870;2023-04-03T08:26:15;6.50;97.70
7117;DHT22;3600;48.568;7.870;2023-04-03T08:28:42;6.40;97.00
7117;DHT22;3600;48.568;7.870;2023-04-03T08:31:15;6.50;98.00
7117;DHT22;3600;48.568;7.870;2023-04-03T08:33:44;6.50;97.40
7117;DHT22;3600;48.568;7.870;2023-04-03T08:36:23;6.60;98.20
7117;DHT22;3600;48.568;7.870;2023-04-03T08:38:50;6.50;98.90
7117;DHT22;3600;48.568;7.870;2023-04-03T08:41:29;6.40;98.80
7117;DHT22;3600;48.568;7.870;2023-04-03T08:49:37;6.60;99.10
7117;DHT22;3600;48.568;7.870;2023-04-03T08:52:11;6.70;98.70
7117;DHT22;3600;48.568;7.870;2023-04-03T08:54:52;6.60;98.60
7117;DHT22;3600;48.568;7.870;2023-04-03T08:57:30;6.70;99.70
7117;DHT22;3600;48.568;7.870;2023-04-03T09:00:00;6.80;99.00
7117;DHT22;3600;48.568;7.870;2023-04-03T09:02:34;6.70;97.80
7117;DHT22;3600;48.568;7.870;2023-04-03T09:05:05;6.80;98.80
7117;DHT22;3600;48.568;7.870;2023-04-03T09:07:43;6.80;98.30
7117;DHT22;3600;48.568;7.870;2023-04-03T09:10:14;6.90;98.00
7117;DHT22;3600;48.568;7.870;2023-04-03T09:12:43;6.90;98.20
7117;DHT22;3600;48.568;7.870;2023-04-03T09:15:23;6.80;97.20
7117;DHT22;3600;48.568;7.870;2023-04-03T09:23:22;7.30;98.60
7117;DHT22;3600;48.568;7.870;2023-04-03T09:25:54;7.30;99.10
7117;DHT22;3600;48.568;7.870;2023-04-03T09:28:23;7.30;99.60
7117;DHT22;3600;48.568;7.870;2023-04-03T09:30:49;7.40;99.60
7117;DHT22;3600;48.568;7.870;2023-04-03T09:33:16;7.50;99.10
7117;DHT22;3600;48.568;7.870;2023-04-03T09:35:44;7.30;99.00
7117;DHT22;3600;48.568;7.870;2023-04-03T09:38:17;7.30;99.00
7117;DHT22;3600;48.568;7.870;2023-04-03T09:40:47;7.40;99.90
7117;DHT22;3600;48.568;7.870;2023-04-03T09:45:46;7.40;99.50
7117;DHT22;3600;48.568;7.870;2023-04-03T09:53:38;7.50;99.00
7117;DHT22;3600;48.568;7.870;2023-04-03T10:01:37;7.80;97.00
7117;DHT22;3600;48.568;7.870;2023-04-03T10:04:11;7.70;96.20
7117;DHT22;3600;48.568;7.870;2023-04-03T10:06:44;7.60;95.80
7117;DHT22;3600;48.568;7.870;2023-04-03T10:09:25;7.50;95.00
7117;DHT22;3600;48.568;7.870;2023-04-03T10:12:13;7.80;97.40
7117;DHT22;3600;48.568;7.870;2023-04-03T10:15:00;7.90;95.60
7117;DHT22;3600;48.568;7.870;2023-04-03T10:17:47;7.70;94.80
7117;DHT22;3600;48.568;7.870;2023-04-03T10:31:28;8.00;96.10
7117;DHT22;3600;48.568;7.870;2023-04-03T10:45:24;7.90;95.60
7117;DHT22;3600;48.568;7.870;2023-04-03T10:48:12;8.00;94.50
7117;DHT22;3600;48.568;7.870;2023-04-03T10:51:05;7.80;93.50
7117;DHT22;3600;48.568;7.870;2023-04-03T10:56:31;7.70;93.60
7117;DHT22;3600;48.568;7.870;2023-04-03T10:59:13;7.90;95.80
7117;DHT22;3600;48.568;7.870;2023-04-03T11:01:45;8.10;94.80
7117;DHT22;3600;48.568;7.870;2023-04-03T11:04:13;8.10;94.70
7117;DHT22;3600;48.568;7.870;2023-04-03T11:07:10;8.10;95.50
7117;DHT22;3600;48.568;7.870;2023-04-03T11:09:41;8.30;96.00
7117;DHT22;3600;48.568;7.870;2023-04-03T11:12:49;8.40;94.80
7117;DHT22;3600;48.568;7.870;2023-04-03T11:15:13;8.20;94.20
7117;DHT22;3600;48.568;7.870;2023-04-03T11:17:46;8.20;94.60
7117;DHT22;3600;48.568;7.870;2023-04-03T11:20:30;8.10;93.70
7117;DHT22;3600;48.568;7.870;2023-04-03T11:23:21;8.20;93.90
7117;DHT22;3600;48.568;7.870;2023-04-03T11:26:35;8.00;94.10
7117;DHT22;3600;48.568;7.870;2023-04-03T11:28:58;8.20;94.80
7117;DHT22;3600;48.568;7.870;2023-04-03T11:34:49;8.50;94.80
7117;DHT22;3600;48.568;7.870;2023-04-03T11:37:34;8.30;94.00
7117;DHT22;3600;48.568;7.870;2023-04-03T11:42:39;8.10;94.40
7117;DHT22;3600;48.568;7.870;2023-04-03T11:47:50;8.50;94.90
7117;DHT22;3600;48.568;7.870;2023-04-03T11:53:02;8.60;94.10
7117;DHT22;3600;48.568;7.870;2023-04-03T12:13:41;8.40;94.00
7117;DHT22;3600;48.568;7.870;2023-04-03T12:29:50;8.60;92.40
7117;DHT22;3600;48.568;7.870;2023-04-03T12:35:47;8.50;93.00
7117;DHT22;3600;48.568;7.870;2023-04-03T12:46:51;8.20;92.60
7117;DHT22;3600;48.568;7.870;2023-04-03T12:51:58;8.60;94.40
7117;DHT22;3600;48.568;7.870;2023-04-03T12:54:38;8.50;92.30
7117;DHT22;3600;48.568;7.870;2023-04-03T12:57:19;8.50;93.40
7117;DHT22;3600;48.568;7.870;2023-04-03T12:59:48;8.50;93.60
7117;DHT22;3600;48.568;7.870;2023-04-03T13:02:29;8.70;93.50
7117;DHT22;3600;48.568;7.870;2023-04-03T13:04:59;8.50;92.80
7117;DHT22;3600;48.568;7.870;2023-04-03T13:07:36;8.40;93.80
7117;DHT22;3600;48.568;7.870;2023-04-03T13:12:56;8.60;95.00
7117;DHT22;3600;48.568;7.870;2023-04-03T13:15:29;8.50;92.70
7117;DHT22;3600;48.568;7.870;2023-04-03T13:17:57;8.70;93.50
7117;DHT22;3600;48.568;7.870;2023-04-03T13:20:27;8.40;93.90
7117;DHT22;3600;48.568;7.870;2023-04-03T13:23:01;8.50;93.50
7117;DHT22;3600;48.568;7.870;2023-04-03T13:25:33;8.60;94.40
7117;DHT22;3600;48.568;7.870;2023-04-03T13:28:02;8.70;93.30
7117;DHT22;3600;48.568;7.870;2023-04-03T13:30:41;8.80;95.00
7117;DHT22;3600;48.568;7.870;2023-04-03T13:33:23;8.90;93.60
7117;DHT22;3600;48.568;7.870;2023-04-03T13:36:00;8.80;93.00
7117;DHT22;3600;48.568;7.870;2023-04-03T13:38:30;9.00;93.50
7117;DHT22;3600;48.568;7.870;2023-04-03T13:41:23;8.90;93.50
7117;DHT22;3600;48.568;7.870;2023-04-03T13:43:50;8.70;93.90
7117;DHT22;3600;48.568;7.870;2023-04-03T13:46:26;8.80;94.70
7117;DHT22;3600;48.568;7.870;2023-04-03T13:48:56;8.70;93.10
7117;DHT22;3600;48.568;7.870;2023-04-03T13:51:27;8.90;94.00
7117;DHT22;3600;48.568;7.870;2023-04-03T13:54:00;8.90;93.20
7117;DHT22;3600;48.568;7.870;2023-04-03T14:04:27;8.60;92.30
7117;DHT22;3600;48.568;7.870;2023-04-03T14:06:55;8.70;93.00
7117;DHT22;3600;48.568;7.870;2023-04-03T14:09:24;8.70;93.20
7117;DHT22;3600;48.568;7.870;2023-04-03T14:12:04;8.70;94.30
7117;DHT22;3600;48.568;7.870;2023-04-03T14:14:35;8.50;92.40
7117;DHT22;3600;48.568;7.870;2023-04-03T14:17:13;8.30;92.40
7117;DHT22;3600;48.568;7.870;2023-04-03T14:19:52;8.30;92.50
7117;DHT22;3600;48.568;7.870;2023-04-03T14:22:23;8.40;93.00
7117;DHT22;3600;48.568;7.870;2023-04-03T14:24:51;8.40;92.40
7117;DHT22;3600;48.568;7.870;2023-04-03T14:27:27;8.30;93.30
7117;DHT22;3600;48.568;7.870;2023-04-03T14:29:55;8.50;94.20
7117;DHT22;3600;48.568;7.870;2023-04-03T14:32:24;8.60;93.90
7117;DHT22;3600;48.568;7.870;2023-04-03T14:34:51;8.60;93.60
7117;DHT22;3600;48.568;7.870;2023-04-03T14:37:26;8.50;92.40
7117;DHT22;3600;48.568;7.870;2023-04-03T14:39:55;8.50;92.50
7117;DHT22;3600;48.568;7.870;2023-04-03T14:42:28;8.70;92.70
7117;DHT22;3600;48.568;7.870;2023-04-03T14:44:57;8.50;94.10
7117;DHT22;3600;48.568;7.870;2023-04-03T14:47:26;8.50;92.90
7117;DHT22;3600;48.568;7.870;2023-04-03T14:49:59;8.40;92.60
7117;DHT22;3600;48.568;7.870;2023-04-03T14:52:32;8.50;94.40
7117;DHT22;3600;48.568;7.870;2023-04-03T14:55:00;8.30;92.60
7117;DHT22;3600;48.568;7.870;2023-04-03T14:57:29;8.20;93.30
7117;DHT22;3600;48.568;7.870;2023-04-03T14:59:56;8.10;92.70
7117;DHT22;3600;48.568;7.870;2023-04-03T15:02:37;8.10;94.40
7117;DHT22;3600;48.568;7.870;2023-04-03T15:05:07;8.10;93.90
7117;DHT22;3600;48.568;7.870;2023-04-03T15:07:37;8.20;94.30
7117;DHT22;3600;48.568;7.870;2023-04-03T15:10:20;8.30;93.50
7117;DHT22;3600;48.568;7.870;2023-04-03T15:12:48;8.20;93.30
7117;DHT22;3600;48.568;7.870;2023-04-03T15:15:16;8.20;94.20
7117;DHT22;3600;48.568;7.870;2023-04-03T15:17:44;8.10;93.00
7117;DHT22;3600;48.568;7.870;2023-04-03T15:20:14;8.30;93.30
7117;DHT22;3600;48.568;7.870;2023-04-03T15:22:41;8.20;93.50
7117;DHT22;3600;48.568;7.870;2023-04-03T15:25:08;8.20;93.00
7117;DHT22;3600;48.568;7.870;2023-04-03T15:27:36;8.10;92.60
7117;DHT22;3600;48.568;7.870;2023-04-03T15:30:05;8.30;94.00
7117;DHT22;3600;48.568;7.870;2023-04-03T15:32:32;8.30;92.60
7117;DHT22;3600;48.568;7.870;2023-04-03T15:35:01;8.20;92.40
7117;DHT22;3600;48.568;7.870;2023-04-03T15:37:28;8.10;91.50
7117;DHT22;3600;48.568;7.870;2023-04-03T15:39:55;8.00;91.20
7117;DHT22;3600;48.568;7.870;2023-04-03T15:42:22;8.20;92.90
7117;DHT22;3600;48.568;7.870;2023-04-03T15:44:49;8.20;91.60
7117;DHT22;3600;48.568;7.870;2023-04-03T15:47:15;8.20;92.40
7117;DHT22;3600;48.568;7.870;2023-04-03T15:49:42;8.20;92.60
7117;DHT22;3600;48.568;7.870;2023-04-03T15:52:09;8.10;92.80
7117;DHT22;3600;48.568;7.870;2023-04-03T15:54:36;8.20;92.90
7117;DHT22;3600;48.568;7.870;2023-04-03T15:57:02;8.30;92.80
7117;DHT22;3600;48.568;7.870;2023-04-03T15:59:29;8.70;94.20
7117;DHT22;3600;48.568;7.870;2023-04-03T16:01:59;8.90;93.10
7117;DHT22;3600;48.568;7.870;2023-04-03T16:04:28;8.80;92.60
7117;DHT22;3600;48.568;7.870;2023-04-03T16:06:56;8.60;91.70
7117;DHT22;3600;48.568;7.870;2023-04-03T16:09:23;8.90;93.50
7117;DHT22;3600;48.568;7.870;2023-04-03T16:11:50;8.90;92.90
7117;DHT22;3600;48.568;7.870;2023-04-03T16:14:17;8.50;91.30
7117;DHT22;3600;48.568;7.870;2023-04-03T16:16:44;8.50;90.90
7117;DHT22;3600;48.568;7.870;2023-04-03T16:19:11;8.50;92.30
7117;DHT22;3600;48.568;7.870;2023-04-03T16:21:38;8.50;91.30
7117;DHT22;3600;48.568;7.870;2023-04-03T16:24:05;8.10;91.60
7117;DHT22;3600;48.568;7.870;2023-04-03T16:26:32;8.20;92.10
7117;DHT22;3600;48.568;7.870;2023-04-03T16:28:58;8.20;92.10
7117;DHT22;3600;48.568;7.870;2023-04-03T16:31:26;8.00;91.10
7117;DHT22;3600;48.568;7.870;2023-04-03T16:33:54;8.10;92.40
7117;DHT22;3600;48.568;7.870;2023-04-03T16:36:21;8.20;93.30
7117;DHT22;3600;48.568;7.870;2023-04-03T16:38:47;8.30;92.10
7117;DHT22;3600;48.568;7.870;2023-04-03T16:41:14;8.00;91.40
7117;DHT22;3600;48.568;7.870;2023-04-03T16:43:41;7.90;91.70
7117;DHT22;3600;48.568;7.870;2023-04-03T16:46:08;8.10;92.50
7117;DHT22;3600;48.568;7.870;2023-04-03T16:48:34;8.30;92.60
7117;DHT22;3600;48.568;7.870;2023-04-03T16:51:01;8.10;91.20
7117;DHT22;3600;48.568;7.870;2023-04-03T16:53:28;8.30;91.70
7117;DHT22;3600;48.568;7.870;2023-04-03T16:55:57;8.50;92.50
7117;DHT22;3600;48.568;7.870;2023-04-03T16:58:24;8.20;91.80
7117;DHT22;3600;48.568;7.870;2023-04-03T17:00:51;8.20;91.30
7117;DHT22;3600;48.568;7.870;2023-04-03T17:03:20;8.20;91.40
7117;DHT22;3600;48.568;7.870;2023-04-03T17:05:47;8.00;91.90
7117;DHT22;3600;48.568;7.870;2023-04-03T17:08:16;7.90;91.70
7117;DHT22;3600;48.568;7.870;2023-04-03T17:10:43;7.90;90.90
7117;DHT22;3600;48.568;7.870;2023-04-03T17:13:10;7.70;90.90
7117;DHT22;3600;48.568;7.870;2023-04-03T17:15:37;7.70;91.10
7117;DHT22;3600;48.568;7.870;2023-04-03T17:18:04;7.70;92.30
7117;DHT22;3600;48.568;7.870;2023-04-03T17:20:31;7.50;91.90
7117;DHT22;3600;48.568;7.870;2023-04-03T17:26:47;7.70;92.40
7117;DHT22;3600;48.568;7.870;2023-04-03T17:29:14;7.60;92.70
7117;DHT22;3600;48.568;7.870;2023-04-03T17:31:41;7.40;91.70
7117;DHT22;3600;48.568;7.870;2023-04-03T17:34:08;7.40;93.50
7117;DHT22;3600;48.568;7.870;2023-04-03T17:36:38;7.30;91.70
7117;DHT22;3600;48.568;7.870;2023-04-03T17:39:05;7.30;91.60
7117;DHT22;3600;48.568;7.870;2023-04-03T17:41:32;7.20;91.90
7117;DHT22;3600;48.568;7.870;2023-04-03T17:43:59;7.20;93.10
7117;DHT22;3600;48.568;7.870;2023-04-03T17:46:26;7.20;91.10
7117;DHT22;3600;48.568;7.870;2023-04-03T17:48:52;7.00;91.80
7117;DHT22;3600;48.568;7.870;2023-04-03T17:51:22;7.00;91.90
7117;DHT22;3600;48.568;7.870;2023-04-03T17:53:49;6.80;92.40
7117;DHT22;3600;48.568;7.870;2023-04-03T17:56:19;6.90;91.50
7117;DHT22;3600;48.568;7.870;2023-04-03T17:58:48;6.80;92.70
7117;DHT22;3600;48.568;7.870;2023-04-03T18:01:18;6.70;91.70
7117;DHT22;3600;48.568;7.870;2023-04-03T18:03:47;6.60;92.10
7117;DHT22;3600;48.568;7.870;2023-04-03T18:06:18;6.60;93.10
7117;DHT22;3600;48.568;7.870;2023-04-03T18:08:52;6.60;92.20
7117;DHT22;3600;48.568;7.870;2023-04-03T18:11:22;6.60;91.60
7117;DHT22;3600;48.568;7.870;2023-04-03T18:13:49;6.50;91.50
7117;DHT22;3600;48.568;7.870;2023-04-03T18:16:17;6.50;91.70
7117;DHT22;3600;48.568;7.870;2023-04-03T18:18:43;6.40;91.70
7117;DHT22;3600;48.568;7.870;2023-04-03T18:21:13;6.50;91.80
7117;DHT22;3600;48.568;7.870;2023-04-03T18:23:43;6.60;91.80
7117;DHT22;3600;48.568;7.870;2023-04-03T18:26:13;6.60;92.30
7117;DHT22;3600;48.568;7.870;2023-04-03T18:28:51;6.40;90.80
7117;DHT22;3600;48.568;7.870;2023-04-03T18:31:19;6.30;92.10
7117;DHT22;3600;48.568;7.870;2023-04-03T18:33:46;6.30;91.70
7117;DHT22;3600;48.568;7.870;2023-04-03T18:36:13;6.30;91.90
7117;DHT22;3600;48.568;7.870;2023-04-03T18:38:39;6.30;92.00
7117;DHT22;3600;48.568;7.870;2023-04-03T18:41:07;6.20;91.90
7117;DHT22;3600;48.568;7.870;2023-04-03T18:43:34;6.10;91.80